sensor_id;sensor_type;location;lat;lon;timestamp;P1;durP1;ratioP1;P2;durP2;ratioP2
2211;SDS011;48849;48.758;9.158;2023-12-22T00:02:12;1.65;;;1.35;;
2211;SDS011;48849;48.758;9.158;2023-12-22T00:04:38;3.17;;;1.60;;
2211;SDS011;48849;48.758;9.158;2023-12-22T00:07:06;4.30;;;1.60;;
2211;SDS011;48849;48.758;9.158;2023-12-22T00:09:33;3.30;;;1.38;;
2211;SDS011;48849;48.758;9.158;2023-12-22T00:12:00;3.15;;;1.65;;
2211;SDS011;48849;48.758;9.158;2023-12-22T00:14:27;4.78;;;1.90;;
2211;SDS011;48849;48.758;9.158;2023-12-22T00:16:53;4.20;;;1.50;;
2211;SDS011;48849;48.758;9.158;2023-12-22T00:19:20;3.38;;;1.67;;
2211;SDS011;48849;48.758;9.158;2023-12-22T00:21:47;2.35;;;1.73;;
2211;SDS011;48849;48.758;9.158;2023-12-22T00:24:15;5.78;;;2.17;;
2211;SDS011;48849;48.758;9.158;2023-12-22T00:26:41;4.25;;;1.52;;
2211;SDS011;48849;48.758;9.158;2023-12-22T00:29:08;6.32;;;1.90;;
2211;SDS011;48849;48.758;9.158;2023-12-22T00:31:35;5.35;;;2.08;;
2211;SDS011;48849;48.758;9.158;2023-12-22T00:34:01;7.15;;;1.80;;
2211;SDS011;48849;48.758;9.158;2023-12-22T00:36:28;4.15;;;2.05;;
2211;SDS011;48849;48.758;9.158;2023-12-22T00:38:54;4.30;;;1.40;;
2211;SDS011;48849;48.758;9.158;2023-12-22T00:41:22;4.18;;;1.40;;
2211;SDS011;48849;48.758;9.158;2023-12-22T00:43:49;3.13;;;1.65;;
2211;SDS011;48849;48.758;9.158;2023-12-22T00:46:16;3.22;;;1.45;;
2211;SDS011;48849;48.758;9.158;2023-12-22T00:48:42;5.68;;;1.65;;
2211;SDS011;48849;48.758;9.158;2023-12-22T00:51:09;3.97;;;1.60;;
2211;SDS011;48849;48.758;9.158;2023-12-22T00:53:36;4.47;;;1.45;;
2211;SDS011;48849;48.758;9.158;2023-12-22T00:56:03;2.25;;;1.30;;
2211;SDS011;48849;48.758;9.158;2023-12-22T00:58:32;3.10;;;1.58;;
2211;SDS011;48849;48.758;9.158;2023-12-22T01:00:59;2.65;;;1.58;;
2211;SDS011;48849;48.758;9.158;2023-12-22T01:03:25;8.57;;;1.80;;
2211;SDS011;48849;48.758;9.158;2023-12-22T01:05:52;5.38;;;1.63;;
2211;SDS011;48849;48.758;9.158;2023-12-22T01:08:19;6.05;;;2.35;;
2211;SDS011;48849;48.758;9.158;2023-12-22T01:10:46;8.25;;;1.98;;
2211;SDS011;48849;48.758;9.158;2023-12-22T01:13:12;6.35;;;1.55;;
2211;SDS011;48849;48.758;9.158;2023-12-22T01:15:40;4.35;;;1.40;;
2211;SDS011;48849;48.758;9.158;2023-12-22T01:18:08;5.22;;;1.70;;
2211;SDS011;48849;48.758;9.158;2023-12-22T01:20:35;9.35;;;1.90;;
2211;SDS011;48849;48.758;9.158;2023-12-22T01:23:02;5.57;;;2.00;;
2211;SDS011;48849;48.758;9.158;2023-12-22T01:25:29;3.40;;;1.40;;
2211;SDS011;48849;48.758;9.158;2023-12-22T01:27:56;5.68;;;1.42;;
2211;SDS011;48849;48.758;9.158;2023-12-22T01:30:22;4.70;;;1.65;;
2211;SDS011;48849;48.758;9.158;2023-12-22T01:32:50;2.30;;;1.63;;
2211;SDS011;48849;48.758;9.158;2023-12-22T01:35:17;6.65;;;1.58;;
2211;SDS011;48849;48.758;9.158;2023-12-22T01:37:44;5.88;;;1.60;;
2211;SDS011;48849;48.758;9.158;2023-12-22T01:40:12;6.38;;;1.75;;
2211;SDS011;48849;48.758;9.158;2023-12-22T01:42:39;6.65;;;1.80;;
2211;SDS011;48849;48.758;9.158;2023-12-22T01:45:06;2.70;;;1.48;;
2211;SDS011;48849;48.758;9.158;2023-12-22T01:47:33;2.33;;;1.35;;
2211;SDS011;48849;48.758;9.158;2023-12-22T01:50:03;4.80;;;1.35;;
2211;SDS011;48849;48.758;9.158;2023-12-22T01:52:30;5.82;;;1.30;;
2211;SDS011;48849;48.758;9.158;2023-12-22T01:54:57;2.88;;;1.00;;
2211;SDS011;48849;48.758;9.158;2023-12-22T01:57:24;3.08;;;0.82;;
2211;SDS011;48849;48.758;9.158;2023-12-22T01:59:51;1.02;;;0.90;;
2211;SDS011;48849;48.758;9.158;2023-12-22T02:02:17;3.20;;;1.40;;
2211;SDS011;48849;48.758;9.158;2023-12-22T02:04:44;3.10;;;1.15;;
2211;SDS011;48849;48.758;9.158;2023-12-22T02:07:13;3.80;;;1.10;;
2211;SDS011;48849;48.758;9.158;2023-12-22T02:09:40;2.33;;;1.10;;
2211;SDS011;48849;48.758;9.158;2023-12-22T02:12:06;1.30;;;0.90;;
2211;SDS011;48849;48.758;9.158;2023-12-22T02:14:33;1.20;;;0.88;;
2211;SDS011;48849;48.758;9.158;2023-12-22T02:17:02;1.50;;;0.95;;
2211;SDS011;48849;48.758;9.158;2023-12-22T02:19:40;2.15;;;0.93;;
2211;SDS011;48849;48.758;9.158;2023-12-22T02:22:08;2.92;;;1.35;;
2211;SDS011;48849;48.758;9.158;2023-12-22T02:24:37;2.22;;;1.17;;
2211;SDS011;48849;48.758;9.158;2023-12-22T02:27:05;1.90;;;0.90;;
2211;SDS011;48849;48.758;9.158;2023-12-22T02:29:40;1.95;;;0.90;;
2211;SDS011;48849;48.758;9.158;2023-12-22T02:32:12;2.63;;;1.27;;
2211;SDS011;48849;48.758;9.158;2023-12-22T02:34:49;3.92;;;1.00;;
2211;SDS011;48849;48.758;9.158;2023-12-22T02:37:18;3.47;;;1.10;;
2211;SDS011;48849;48.758;9.158;2023-12-22T02:39:47;4.28;;;1.52;;
2211;SDS011;48849;48.758;9.158;2023-12-22T02:42:15;1.85;;;1.10;;
2211;SDS011;48849;48.758;9.158;2023-12-22T02:44:43;2.58;;;0.90;;
2211;SDS011;48849;48.758;9.158;2023-12-22T02:47:10;2.83;;;1.40;;
2211;SDS011;48849;48.758;9.158;2023-12-22T02:49:36;4.45;;;1.30;;
2211;SDS011;48849;48.758;9.158;2023-12-22T02:52:03;2.65;;;1.10;;
2211;SDS011;48849;48.758;9.158;2023-12-22T02:54:31;3.50;;;1.27;;
2211;SDS011;48849;48.758;9.158;2023-12-22T02:56:59;2.35;;;1.40;;
2211;SDS011;48849;48.758;9.158;2023-12-22T02:59:26;5.25;;;1.30;;
2211;SDS011;48849;48.758;9.158;2023-12-22T03:01:53;2.85;;;1.30;;
2211;SDS011;48849;48.758;9.158;2023-12-22T03:04:20;3.35;;;1.30;;
2211;SDS011;48849;48.758;9.158;2023-12-22T03:06:46;4.18;;;1.50;;
2211;SDS011;48849;48.758;9.158;2023-12-22T03:09:13;4.13;;;1.10;;
2211;SDS011;48849;48.758;9.158;2023-12-22T03:11:40;3.00;;;1.65;;
2211;SDS011;48849;48.758;9.158;2023-12-22T03:14:08;8.55;;;2.30;;
2211;SDS011;48849;48.758;9.158;2023-12-22T03:16:35;3.90;;;1.27;;
2211;SDS011;48849;48.758;9.158;2023-12-22T03:19:01;6.32;;;1.70;;
2211;SDS011;48849;48.758;9.158;2023-12-22T03:21:28;6.50;;;1.38;;
2211;SDS011;48849;48.758;9.158;2023-12-22T03:23:55;2.08;;;1.20;;
2211;SDS011;48849;48.758;9.158;2023-12-22T03:26:21;4.55;;;1.40;;
2211;SDS011;48849;48.758;9.158;2023-12-22T03:28:48;7.15;;;1.40;;
2211;SDS011;48849;48.758;9.158;2023-12-22T03:31:16;4.55;;;1.60;;
2211;SDS011;48849;48.758;9.158;2023-12-22T03:33:43;2.67;;;1.40;;
2211;SDS011;48849;48.758;9.158;2023-12-22T03:36:09;3.50;;;1.30;;
2211;SDS011;48849;48.758;9.158;2023-12-22T03:38:36;4.18;;;1.52;;
2211;SDS011;48849;48.758;9.158;2023-12-22T03:41:03;2.33;;;1.50;;
2211;SDS011;48849;48.758;9.158;2023-12-22T03:43:30;3.53;;;1.35;;
2211;SDS011;48849;48.758;9.158;2023-12-22T03:45:57;3.78;;;1.25;;
2211;SDS011;48849;48.758;9.158;2023-12-22T03:48:25;2.55;;;1.10;;
2211;SDS011;48849;48.758;9.158;2023-12-22T03:50:52;3.45;;;1.30;;
2211;SDS011;48849;48.758;9.158;2023-12-22T03:53:18;3.30;;;1.30;;
2211;SDS011;48849;48.758;9.158;2023-12-22T03:55:45;5.95;;;1.60;;
2211;SDS011;48849;48.758;9.158;2023-12-22T03:58:12;3.83;;;1.10;;
2211;SDS011;48849;48.758;9.158;2023-12-22T04:00:39;2.95;;;1.20;;
2211;SDS011;48849;48.758;9.158;2023-12-22T04:03:05;4.07;;;1.25;;
2211;SDS011;48849;48.758;9.158;2023-12-22T04:05:33;4.95;;;1.98;;
2211;SDS011;48849;48.758;9.158;2023-12-22T04:08:00;4.15;;;1.30;;
2211;SDS011;48849;48.758;9.158;2023-12-22T04:10:27;5.75;;;1.65;;
2211;SDS011;48849;48.758;9.158;2023-12-22T04:12:53;2.85;;;1.50;;
2211;SDS011;48849;48.758;9.158;2023-12-22T04:15:20;5.78;;;1.88;;
2211;SDS011;48849;48.758;9.158;2023-12-22T04:17:47;5.28;;;1.90;;
2211;SDS011;48849;48.758;9.158;2023-12-22T04:20:14;3.50;;;1.40;;
2211;SDS011;48849;48.758;9.158;2023-12-22T04:22:43;4.25;;;1.65;;
2211;SDS011;48849;48.758;9.158;2023-12-22T04:25:10;6.25;;;1.80;;
2211;SDS011;48849;48.758;9.158;2023-12-22T04:27:37;5.00;;;1.75;;
2211;SDS011;48849;48.758;9.158;2023-12-22T04:30:04;5.25;;;1.60;;
2211;SDS011;48849;48.758;9.158;2023-12-22T04:32:31;7.78;;;1.70;;
2211;SDS011;48849;48.758;9.158;2023-12-22T04:34:58;9.25;;;1.60;;
2211;SDS011;48849;48.758;9.158;2023-12-22T04:37:25;5.40;;;1.73;;
2211;SDS011;48849;48.758;9.158;2023-12-22T04:39:53;5.00;;;1.95;;
2211;SDS011;48849;48.758;9.158;2023-12-22T04:42:19;3.75;;;1.50;;
2211;SDS011;48849;48.758;9.158;2023-12-22T04:44:46;3.45;;;1.38;;
2211;SDS011;48849;48.758;9.158;2023-12-22T04:47:13;3.65;;;1.60;;
2211;SDS011;48849;48.758;9.158;2023-12-22T04:49:41;9.45;;;1.52;;
2211;SDS011;48849;48.758;9.158;2023-12-22T04:52:08;5.57;;;1.40;;
2211;SDS011;48849;48.758;9.158;2023-12-22T04:54:35;2.95;;;1.20;;
2211;SDS011;48849;48.758;9.158;2023-12-22T04:57:03;3.08;;;1.20;;
2211;SDS011;48849;48.758;9.158;2023-12-22T04:59:30;2.67;;;1.13;;
2211;SDS011;48849;48.758;9.158;2023-12-22T05:01:57;1.90;;;1.13;;
2211;SDS011;48849;48.758;9.158;2023-12-22T05:04:24;3.95;;;1.45;;
2211;SDS011;48849;48.758;9.158;2023-12-22T05:06:51;4.18;;;1.55;;
2211;SDS011;48849;48.758;9.158;2023-12-22T05:09:17;6.38;;;1.58;;
2211;SDS011;48849;48.758;9.158;2023-12-22T05:11:44;2.35;;;1.20;;
2211;SDS011;48849;48.758;9.158;2023-12-22T05:14:12;2.42;;;1.20;;
2211;SDS011;48849;48.758;9.158;2023-12-22T05:16:39;3.40;;;1.25;;
2211;SDS011;48849;48.758;9.158;2023-12-22T05:19:05;4.20;;;1.95;;
2211;SDS011;48849;48.758;9.158;2023-12-22T05:21:32;3.33;;;1.52;;
2211;SDS011;48849;48.758;9.158;2023-12-22T05:23:59;9.10;;;2.13;;
2211;SDS011;48849;48.758;9.158;2023-12-22T05:26:25;7.32;;;1.88;;
2211;SDS011;48849;48.758;9.158;2023-12-22T05:28:55;6.45;;;2.20;;
2211;SDS011;48849;48.758;9.158;2023-12-22T05:31:23;9.82;;;2.17;;
2211;SDS011;48849;48.758;9.158;2023-12-22T05:33:50;7.10;;;1.90;;
2211;SDS011;48849;48.758;9.158;2023-12-22T05:36:17;8.27;;;2.28;;
2211;SDS011;48849;48.758;9.158;2023-12-22T05:38:43;6.65;;;1.90;;
2211;SDS011;48849;48.758;9.158;2023-12-22T05:41:10;6.70;;;2.30;;
2211;SDS011;48849;48.758;9.158;2023-12-22T05:43:37;5.38;;;1.85;;
2211;SDS011;48849;48.758;9.158;2023-12-22T05:46:04;3.72;;;1.88;;
2211;SDS011;48849;48.758;9.158;2023-12-22T05:48:32;5.95;;;1.90;;
2211;SDS011;48849;48.758;9.158;2023-12-22T05:51:00;8.50;;;2.13;;
2211;SDS011;48849;48.758;9.158;2023-12-22T05:53:28;7.43;;;2.28;;
2211;SDS011;48849;48.758;9.158;2023-12-22T05:55:55;6.70;;;2.13;;
2211;SDS011;48849;48.758;9.158;2023-12-22T05:58:21;5.55;;;2.30;;
2211;SDS011;48849;48.758;9.158;2023-12-22T06:00:48;10.70;;;2.63;;
2211;SDS011;48849;48.758;9.158;2023-12-22T06:03:15;8.00;;;2.63;;
2211;SDS011;48849;48.758;9.158;2023-12-22T06:05:43;7.03;;;2.05;;
2211;SDS011;48849;48.758;9.158;2023-12-22T06:08:10;8.82;;;2.65;;
2211;SDS011;48849;48.758;9.158;2023-12-22T06:10:36;5.38;;;2.20;;
2211;SDS011;48849;48.758;9.158;2023-12-22T06:13:03;7.93;;;2.85;;
2211;SDS011;48849;48.758;9.158;2023-12-22T06:15:30;5.82;;;2.25;;
2211;SDS011;48849;48.758;9.158;2023-12-22T06:17:57;6.30;;;2.30;;
2211;SDS011;48849;48.758;9.158;2023-12-22T06:20:24;5.57;;;1.70;;
2211;SDS011;48849;48.758;9.158;2023-12-22T06:22:52;7.07;;;2.28;;
2211;SDS011;48849;48.758;9.158;2023-12-22T06:25:19;4.80;;;2.63;;
2211;SDS011;48849;48.758;9.158;2023-12-22T06:27:46;8.43;;;2.40;;
2211;SDS011;48849;48.758;9.158;2023-12-22T06:30:13;10.40;;;3.42;;
2211;SDS011;48849;48.758;9.158;2023-12-22T06:32:39;3.90;;;1.90;;
2211;SDS011;48849;48.758;9.158;2023-12-22T06:35:07;5.63;;;2.10;;
2211;SDS011;48849;48.758;9.158;2023-12-22T06:37:35;5.03;;;2.33;;
2211;SDS011;48849;48.758;9.158;2023-12-22T06:40:04;5.75;;;2.30;;
2211;SDS011;48849;48.758;9.158;2023-12-22T06:42:31;7.30;;;2.72;;
2211;SDS011;48849;48.758;9.158;2023-12-22T06:44:58;6.20;;;2.00;;
2211;SDS011;48849;48.758;9.158;2023-12-22T06:47:24;7.90;;;2.70;;
2211;SDS011;48849;48.758;9.158;2023-12-22T06:49:52;7.72;;;3.00;;
2211;SDS011;48849;48.758;9.158;2023-12-22T06:52:18;3.85;;;1.55;;
2211;SDS011;48849;48.758;9.158;2023-12-22T06:54:45;5.75;;;2.90;;
2211;SDS011;48849;48.758;9.158;2023-12-22T06:57:13;8.25;;;2.40;;
2211;SDS011;48849;48.758;9.158;2023-12-22T06:59:41;7.35;;;2.60;;
2211;SDS011;48849;48.758;9.158;2023-12-22T07:02:08;4.40;;;2.10;;
2211;SDS011;48849;48.758;9.158;2023-12-22T07:04:35;7.90;;;3.55;;
2211;SDS011;48849;48.758;9.158;2023-12-22T07:07:01;6.32;;;1.83;;
2211;SDS011;48849;48.758;9.158;2023-12-22T07:09:31;7.10;;;2.65;;
2211;SDS011;48849;48.758;9.158;2023-12-22T07:11:58;5.07;;;1.73;;
2211;SDS011;48849;48.758;9.158;2023-12-22T07:14:26;4.57;;;2.20;;
2211;SDS011;48849;48.758;9.158;2023-12-22T07:16:52;4.45;;;2.33;;
2211;SDS011;48849;48.758;9.158;2023-12-22T07:19:26;6.30;;;2.30;;
2211;SDS011;48849;48.758;9.158;2023-12-22T07:21:52;3.88;;;2.20;;
2211;SDS011;48849;48.758;9.158;2023-12-22T07:24:19;4.50;;;2.13;;
2211;SDS011;48849;48.758;9.158;2023-12-22T07:26:46;8.73;;;4.15;;
2211;SDS011;48849;48.758;9.158;2023-12-22T07:29:13;11.50;;;4.47;;
2211;SDS011;48849;48.758;9.158;2023-12-22T07:31:41;6.75;;;2.15;;
2211;SDS011;48849;48.758;9.158;2023-12-22T07:34:08;6.63;;;1.92;;
2211;SDS011;48849;48.758;9.158;2023-12-22T07:36:35;4.80;;;2.10;;
2211;SDS011;48849;48.758;9.158;2023-12-22T07:39:01;4.50;;;1.60;;
2211;SDS011;48849;48.758;9.158;2023-12-22T07:41:28;4.97;;;1.88;;
2211;SDS011;48849;48.758;9.158;2023-12-22T07:43:55;6.88;;;2.03;;
2211;SDS011;48849;48.758;9.158;2023-12-22T07:46:22;5.10;;;2.20;;
2211;SDS011;48849;48.758;9.158;2023-12-22T07:48:50;8.63;;;2.60;;
2211;SDS011;48849;48.758;9.158;2023-12-22T07:51:16;6.50;;;2.28;;
2211;SDS011;48849;48.758;9.158;2023-12-22T07:53:43;8.75;;;2.60;;
2211;SDS011;48849;48.758;9.158;2023-12-22T07:56:10;4.53;;;1.80;;
2211;SDS011;48849;48.758;9.158;2023-12-22T07:58:37;9.15;;;2.70;;
2211;SDS011;48849;48.758;9.158;2023-12-22T08:01:04;6.07;;;2.63;;
2211;SDS011;48849;48.758;9.158;2023-12-22T08:03:31;7.22;;;2.15;;
2211;SDS011;48849;48.758;9.158;2023-12-22T08:06:00;8.35;;;2.40;;
2211;SDS011;48849;48.758;9.158;2023-12-22T08:08:26;5.50;;;2.63;;
2211;SDS011;48849;48.758;9.158;2023-12-22T08:10:53;10.15;;;3.17;;
2211;SDS011;48849;48.758;9.158;2023-12-22T08:13:20;6.43;;;3.10;;
2211;SDS011;48849;48.758;9.158;2023-12-22T08:15:46;6.53;;;3.90;;
2211;SDS011;48849;48.758;9.158;2023-12-22T08:18:13;5.40;;;2.90;;
2211;SDS011;48849;48.758;9.158;2023-12-22T08:20:40;7.55;;;3.00;;
2211;SDS011;48849;48.758;9.158;2023-12-22T08:23:08;5.35;;;2.10;;
2211;SDS011;48849;48.758;9.158;2023-12-22T08:25:37;6.22;;;2.10;;
2211;SDS011;48849;48.758;9.158;2023-12-22T08:28:04;5.85;;;2.17;;
2211;SDS011;48849;48.758;9.158;2023-12-22T08:30:31;4.45;;;1.80;;
2211;SDS011;48849;48.758;9.158;2023-12-22T08:32:58;5.57;;;2.60;;
2211;SDS011;48849;48.758;9.158;2023-12-22T08:35:25;9.70;;;2.78;;
2211;SDS011;48849;48.758;9.158;2023-12-22T08:37:52;6.75;;;2.10;;
2211;SDS011;48849;48.758;9.158;2023-12-22T08:40:20;7.80;;;3.10;;
2211;SDS011;48849;48.758;9.158;2023-12-22T08:42:51;8.13;;;2.28;;
2211;SDS011;48849;48.758;9.158;2023-12-22T08:45:19;10.93;;;3.08;;
2211;SDS011;48849;48.758;9.158;2023-12-22T08:47:46;8.30;;;3.00;;
2211;SDS011;48849;48.758;9.158;2023-12-22T08:50:13;12.02;;;3.17;;
2211;SDS011;48849;48.758;9.158;2023-12-22T08:52:40;13.23;;;2.72;;
2211;SDS011;48849;48.758;9.158;2023-12-22T08:55:07;13.43;;;2.70;;
2211;SDS011;48849;48.758;9.158;2023-12-22T08:57:35;7.78;;;2.38;;
2211;SDS011;48849;48.758;9.158;2023-12-22T09:00:02;13.02;;;2.25;;
2211;SDS011;48849;48.758;9.158;2023-12-22T09:02:29;10.02;;;2.70;;
2211;SDS011;48849;48.758;9.158;2023-12-22T09:04:56;8.48;;;2.72;;
2211;SDS011;48849;48.758;9.158;2023-12-22T09:07:23;6.32;;;3.10;;
2211;SDS011;48849;48.758;9.158;2023-12-22T09:09:50;10.73;;;3.28;;
2211;SDS011;48849;48.758;9.158;2023-12-22T09:12:17;12.15;;;3.15;;
2211;SDS011;48849;48.758;9.158;2023-12-22T09:14:45;8.80;;;2.50;;
2211;SDS011;48849;48.758;9.158;2023-12-22T09:17:11;8.50;;;3.15;;
2211;SDS011;48849;48.758;9.158;2023-12-22T09:19:38;12.93;;;5.03;;
2211;SDS011;48849;48.758;9.158;2023-12-22T09:22:05;9.05;;;3.88;;
2211;SDS011;48849;48.758;9.158;2023-12-22T09:24:32;9.93;;;4.35;;
2211;SDS011;48849;48.758;9.158;2023-12-22T09:26:58;11.10;;;3.95;;
2211;SDS011;48849;48.758;9.158;2023-12-22T09:29:27;12.63;;;3.75;;
2211;SDS011;48849;48.758;9.158;2023-12-22T09:31:55;10.48;;;3.30;;
2211;SDS011;48849;48.758;9.158;2023-12-22T09:34:25;10.65;;;3.03;;
2211;SDS011;48849;48.758;9.158;2023-12-22T09:36:52;13.23;;;3.42;;
2211;SDS011;48849;48.758;9.158;2023-12-22T09:39:18;15.15;;;3.92;;
2211;SDS011;48849;48.758;9.158;2023-12-22T09:41:47;9.48;;;3.92;;
2211;SDS011;48849;48.758;9.158;2023-12-22T09:44:16;8.88;;;3.13;;
2211;SDS011;48849;48.758;9.158;2023-12-22T09:46:46;10.05;;;3.30;;
2211;SDS011;48849;48.758;9.158;2023-12-22T09:49:15;13.45;;;3.63;;
2211;SDS011;48849;48.758;9.158;2023-12-22T09:51:43;12.85;;;4.03;;
2211;SDS011;48849;48.758;9.158;2023-12-22T09:54:10;14.18;;;4.15;;
2211;SDS011;48849;48.758;9.158;2023-12-22T09:56:39;10.45;;;3.10;;
2211;SDS011;48849;48.758;9.158;2023-12-22T09:59:08;9.27;;;3.70;;
2211;SDS011;48849;48.758;9.158;2023-12-22T10:01:37;15.00;;;3.40;;
2211;SDS011;48849;48.758;9.158;2023-12-22T10:04:06;11.43;;;2.88;;
2211;SDS011;48849;48.758;9.158;2023-12-22T10:06:34;9.15;;;2.72;;
2211;SDS011;48849;48.758;9.158;2023-12-22T10:09:01;9.10;;;2.97;;
2211;SDS011;48849;48.758;9.158;2023-12-22T10:11:30;18.33;;;4.10;;
2211;SDS011;48849;48.758;9.158;2023-12-22T10:13:58;11.13;;;3.55;;
2211;SDS011;48849;48.758;9.158;2023-12-22T10:16:26;12.40;;;2.75;;
2211;SDS011;48849;48.758;9.158;2023-12-22T10:18:54;10.13;;;2.90;;
2211;SDS011;48849;48.758;9.158;2023-12-22T10:21:20;11.40;;;2.72;;
2211;SDS011;48849;48.758;9.158;2023-12-22T10:23:49;12.75;;;3.17;;
2211;SDS011;48849;48.758;9.158;2023-12-22T10:26:16;12.77;;;2.90;;
2211;SDS011;48849;48.758;9.158;2023-12-22T10:28:43;9.55;;;2.78;;
2211;SDS011;48849;48.758;9.158;2023-12-22T10:31:12;12.43;;;3.03;;
2211;SDS011;48849;48.758;9.158;2023-12-22T10:33:39;10.35;;;3.35;;
2211;SDS011;48849;48.758;9.158;2023-12-22T10:36:07;12.40;;;3.00;;
2211;SDS011;48849;48.758;9.158;2023-12-22T10:38:34;10.88;;;2.95;;
2211;SDS011;48849;48.758;9.158;2023-12-22T10:41:03;8.55;;;2.72;;
2211;SDS011;48849;48.758;9.158;2023-12-22T10:43:31;9.70;;;2.83;;
2211;SDS011;48849;48.758;9.158;2023-12-22T10:46:03;10.85;;;2.90;;
2211;SDS011;48849;48.758;9.158;2023-12-22T10:48:30;8.95;;;3.20;;
2211;SDS011;48849;48.758;9.158;2023-12-22T10:50:57;11.32;;;3.10;;
2211;SDS011;48849;48.758;9.158;2023-12-22T10:53:24;12.02;;;2.80;;
2211;SDS011;48849;48.758;9.158;2023-12-22T10:55:51;8.88;;;2.85;;
2211;SDS011;48849;48.758;9.158;2023-12-22T10:58:20;5.10;;;2.00;;
2211;SDS011;48849;48.758;9.158;2023-12-22T11:00:47;7.82;;;1.80;;
2211;SDS011;48849;48.758;9.158;2023-12-22T11:03:17;7.82;;;2.20;;
2211;SDS011;48849;48.758;9.158;2023-12-22T11:05:46;5.90;;;2.10;;
2211;SDS011;48849;48.758;9.158;2023-12-22T11:08:14;6.88;;;1.90;;
2211;SDS011;48849;48.758;9.158;2023-12-22T11:10:44;3.97;;;1.77;;
2211;SDS011;48849;48.758;9.158;2023-12-22T11:13:14;5.35;;;1.70;;
2211;SDS011;48849;48.758;9.158;2023-12-22T11:15:43;8.85;;;2.63;;
2211;SDS011;48849;48.758;9.158;2023-12-22T11:18:10;6.63;;;2.10;;
2211;SDS011;48849;48.758;9.158;2023-12-22T11:20:38;3.97;;;1.85;;
2211;SDS011;48849;48.758;9.158;2023-12-22T11:23:07;5.18;;;1.65;;
2211;SDS011;48849;48.758;9.158;2023-12-22T11:25:35;5.22;;;1.52;;
2211;SDS011;48849;48.758;9.158;2023-12-22T11:28:04;4.43;;;1.42;;
2211;SDS011;48849;48.758;9.158;2023-12-22T11:30:33;9.57;;;5.35;;
2211;SDS011;48849;48.758;9.158;2023-12-22T11:33:04;9.60;;;5.18;;
2211;SDS011;48849;48.758;9.158;2023-12-22T11:35:31;3.45;;;2.10;;
2211;SDS011;48849;48.758;9.158;2023-12-22T11:37:59;8.55;;;2.33;;
2211;SDS011;48849;48.758;9.158;2023-12-22T11:40:27;10.27;;;3.63;;
2211;SDS011;48849;48.758;9.158;2023-12-22T11:42:55;7.43;;;5.25;;
2211;SDS011;48849;48.758;9.158;2023-12-22T11:45:22;5.45;;;3.20;;
2211;SDS011;48849;48.758;9.158;2023-12-22T11:47:49;3.92;;;2.70;;
2211;SDS011;48849;48.758;9.158;2023-12-22T11:50:28;6.03;;;2.92;;
2211;SDS011;48849;48.758;9.158;2023-12-22T11:52:55;4.47;;;2.17;;
2211;SDS011;48849;48.758;9.158;2023-12-22T12:01:08;3.25;;;1.23;;
2211;SDS011;48849;48.758;9.158;2023-12-22T12:03:37;1.65;;;1.17;;
2211;SDS011;48849;48.758;9.158;2023-12-22T12:06:21;4.13;;;1.80;;
2211;SDS011;48849;48.758;9.158;2023-12-22T12:08:58;3.05;;;1.10;;
2211;SDS011;48849;48.758;9.158;2023-12-22T12:14:29;1.90;;;1.00;;
2211;SDS011;48849;48.758;9.158;2023-12-22T12:17:00;2.70;;;1.20;;
2211;SDS011;48849;48.758;9.158;2023-12-22T12:19:29;5.00;;;1.83;;
2211;SDS011;48849;48.758;9.158;2023-12-22T12:21:58;3.75;;;0.90;;
2211;SDS011;48849;48.758;9.158;2023-12-22T12:24:25;2.63;;;1.38;;
2211;SDS011;48849;48.758;9.158;2023-12-22T12:26:51;2.65;;;1.55;;
2211;SDS011;48849;48.758;9.158;2023-12-22T12:29:18;1.55;;;1.20;;
2211;SDS011;48849;48.758;9.158;2023-12-22T12:31:46;2.72;;;1.40;;
2211;SDS011;48849;48.758;9.158;2023-12-22T12:34:13;3.28;;;0.90;;
2211;SDS011;48849;48.758;9.158;2023-12-22T12:36:42;2.58;;;1.10;;
2211;SDS011;48849;48.758;9.158;2023-12-22T12:39:14;2.15;;;1.20;;
2211;SDS011;48849;48.758;9.158;2023-12-22T12:41:42;1.52;;;1.00;;
2211;SDS011;48849;48.758;9.158;2023-12-22T12:44:10;2.47;;;1.13;;
2211;SDS011;48849;48.758;9.158;2023-12-22T12:46:37;3.00;;;0.95;;
2211;SDS011;48849;48.758;9.158;2023-12-22T12:49:07;3.45;;;1.35;;
2211;SDS011;48849;48.758;9.158;2023-12-22T12:51:36;2.03;;;1.10;;
2211;SDS011;48849;48.758;9.158;2023-12-22T12:54:03;1.42;;;1.25;;
2211;SDS011;48849;48.758;9.158;2023-12-22T12:56:37;1.60;;;1.10;;
2211;SDS011;48849;48.758;9.158;2023-12-22T12:59:06;1.88;;;1.00;;
2211;SDS011;48849;48.758;9.158;2023-12-22T13:01:37;1.88;;;1.05;;
2211;SDS011;48849;48.758;9.158;2023-12-22T13:04:04;3.10;;;1.10;;
2211;SDS011;48849;48.758;9.158;2023-12-22T13:06:31;2.50;;;1.20;;
2211;SDS011;48849;48.758;9.158;2023-12-22T13:08:58;2.42;;;1.00;;
2211;SDS011;48849;48.758;9.158;2023-12-22T13:11:26;1.00;;;0.90;;
2211;SDS011;48849;48.758;9.158;2023-12-22T13:13:57;0.80;;;0.80;;
2211;SDS011;48849;48.758;9.158;2023-12-22T13:16:24;1.00;;;0.90;;
2211;SDS011;48849;48.758;9.158;2023-12-22T13:18:54;1.02;;;0.80;;
2211;SDS011;48849;48.758;9.158;2023-12-22T13:21:22;1.65;;;1.00;;
2211;SDS011;48849;48.758;9.158;2023-12-22T13:26:34;1.20;;;0.75;;
2211;SDS011;48849;48.758;9.158;2023-12-22T13:29:02;0.80;;;0.80;;
2211;SDS011;48849;48.758;9.158;2023-12-22T13:31:29;1.23;;;0.70;;
2211;SDS011;48849;48.758;9.158;2023-12-22T13:33:57;0.82;;;0.63;;
2211;SDS011;48849;48.758;9.158;2023-12-22T13:36:24;0.70;;;0.70;;
2211;SDS011;48849;48.758;9.158;2023-12-22T13:38:51;1.08;;;0.57;;
2211;SDS011;48849;48.758;9.158;2023-12-22T13:41:18;0.65;;;0.50;;
2211;SDS011;48849;48.758;9.158;2023-12-22T13:43:45;0.70;;;0.63;;
2211;SDS011;48849;48.758;9.158;2023-12-22T13:46:13;0.80;;;0.57;;
2211;SDS011;48849;48.758;9.158;2023-12-22T13:48:40;0.50;;;0.50;;
2211;SDS011;48849;48.758;9.158;2023-12-22T13:51:07;0.50;;;0.50;;
2211;SDS011;48849;48.758;9.158;2023-12-22T13:53:35;0.93;;;0.88;;
2211;SDS011;48849;48.758;9.158;2023-12-22T13:56:02;0.90;;;0.90;;
2211;SDS011;48849;48.758;9.158;2023-12-22T13:58:29;1.00;;;0.90;;
2211;SDS011;48849;48.758;9.158;2023-12-22T14:00:55;1.48;;;1.10;;
2211;SDS011;48849;48.758;9.158;2023-12-22T14:03:24;1.90;;;0.70;;
2211;SDS011;48849;48.758;9.158;2023-12-22T14:05:52;0.68;;;0.68;;
2211;SDS011;48849;48.758;9.158;2023-12-22T14:08:20;0.73;;;0.60;;
2211;SDS011;48849;48.758;9.158;2023-12-22T14:10:47;0.80;;;0.75;;
2211;SDS011;48849;48.758;9.158;2023-12-22T14:13:14;0.60;;;0.60;;
2211;SDS011;48849;48.758;9.158;2023-12-22T14:15:41;2.25;;;0.68;;
2211;SDS011;48849;48.758;9.158;2023-12-22T14:18:08;0.60;;;0.40;;
2211;SDS011;48849;48.758;9.158;2023-12-22T14:20:36;1.40;;;0.68;;
2211;SDS011;48849;48.758;9.158;2023-12-22T14:23:03;0.70;;;0.70;;
2211;SDS011;48849;48.758;9.158;2023-12-22T14:25:30;0.65;;;0.63;;
2211;SDS011;48849;48.758;9.158;2023-12-22T14:27:58;0.50;;;0.43;;
2211;SDS011;48849;48.758;9.158;2023-12-22T14:30:25;0.63;;;0.63;;
2211;SDS011;48849;48.758;9.158;2023-12-22T14:32:52;0.60;;;0.60;;
2211;SDS011;48849;48.758;9.158;2023-12-22T14:35:19;0.50;;;0.50;;
2211;SDS011;48849;48.758;9.158;2023-12-22T14:37:47;0.80;;;0.80;;
2211;SDS011;48849;48.758;9.158;2023-12-22T14:40:14;1.40;;;0.50;;
2211;SDS011;48849;48.758;9.158;2023-12-22T14:42:41;0.50;;;0.50;;
2211;SDS011;48849;48.758;9.158;2023-12-22T14:45:08;0.85;;;0.70;;
2211;SDS011;48849;48.758;9.158;2023-12-22T14:47:35;2.15;;;0.80;;
2211;SDS011;48849;48.758;9.158;2023-12-22T14:50:02;1.80;;;0.90;;
2211;SDS011;48849;48.758;9.158;2023-12-22T14:52:30;0.80;;;0.70;;
2211;SDS011;48849;48.758;9.158;2023-12-22T14:54:58;6.78;;;3.88;;
2211;SDS011;48849;48.758;9.158;2023-12-22T14:57:25;7.30;;;1.55;;
2211;SDS011;48849;48.758;9.158;2023-12-22T14:59:53;1.02;;;0.93;;
2211;SDS011;48849;48.758;9.158;2023-12-22T15:02:20;0.70;;;0.60;;
2211;SDS011;48849;48.758;9.158;2023-12-22T15:04:47;0.75;;;0.60;;
2211;SDS011;48849;48.758;9.158;2023-12-22T15:07:14;0.98;;;0.90;;
2211;SDS011;48849;48.758;9.158;2023-12-22T15:09:41;1.60;;;0.95;;
2211;SDS011;48849;48.758;9.158;2023-12-22T15:12:09;1.10;;;1.00;;
2211;SDS011;48849;48.758;9.158;2023-12-22T15:14:37;2.00;;;0.68;;